Flag for Spain

Past Weather in 41°34'39"N, 2°04'17"E, Spain — Yesterday and Last 2 Weeks

Currently: 57 °F. Scattered clouds. (Weather station: Barcelona Airport, Spain). See more current weather

Past Weather in 41°34'39"N, 2°04'17"E — Graph

°F

41°34'39"N, 2°04'17"E Temperature Yesterday

Maximum temperature yesterday: 57 °F (at 1:30 pm)
Minimum temperature yesterday: 48 °F (at 8:00 am)
Average temperature yesterday: 54 °F

High & Low Weather Summary for the Past Weeks

 TemperatureHumidityPressure
High70 °F (Apr 3, 1:00 pm)100% (Apr 10, 11:30 pm)30.48 "Hg (Apr 10, 11:30 pm)
Low46 °F (Mar 31, 8:00 am)34% (Mar 29, 4:30 pm)29.80 "Hg (Apr 3, 4:00 pm)
Average56 °F70%30.10 "Hg
* Reported Mar 29 3:00 pm — Apr 13 3:30 pm, 41°34'39"N, 2°04'17"E. Weather by CustomWeather, © 2021

Note: Actual official high and low records may vary slightly from our data, if they occured in-between our weather recording intervals... More about our weather records

41°34'39"N, 2°04'17"E Weather History for the Previous 24 Hours

Scroll right to see more
 ConditionsComfort  
Time TempWeatherWind HumidityBarometerVisibility
3:30 pm
Tue, Apr 13
57 °FScattered clouds.9 mph59%30.24 "HgN/A
3:00 pm57 °FScattered clouds.9 mph55%30.27 "HgN/A
2:30 pm57 °FScattered clouds.9 mph59%30.27 "HgN/A
2:00 pm57 °FScattered clouds.8 mph59%30.27 "HgN/A
1:30 pm57 °FScattered clouds.9 mph59%30.27 "HgN/A
1:00 pm55 °FScattered clouds.9 mph67%30.27 "HgN/A
12:30 pm57 °FBroken clouds.8 mph59%30.30 "HgN/A
12:00 pm57 °FBroken clouds.10 mph59%30.30 "HgN/A
11:30 am57 °FScattered clouds.10 mph59%30.30 "HgN/A
11:00 am55 °FScattered clouds.9 mph63%30.30 "HgN/A
10:30 am55 °FScattered clouds.10 mph67%30.27 "HgN/A
10:00 am54 °FScattered clouds.7 mph72%30.27 "HgN/A
9:30 am52 °FScattered clouds.6 mph77%30.27 "HgN/A
9:00 am50 °FPartly sunny.6 mph82%30.27 "HgN/A
8:30 am48 °FPartly sunny.8 mph82%30.27 "HgN/A
8:00 am48 °FPartly sunny.9 mph82%30.27 "HgN/A
7:30 am46 °FPartly sunny.9 mph87%30.24 "HgN/A
7:00 am46 °FPassing clouds.8 mph87%30.24 "HgN/A
6:30 am46 °FPassing clouds.7 mph87%30.24 "HgN/A
6:00 am48 °FPassing clouds.7 mph82%30.24 "HgN/A
5:30 am48 °FPassing clouds.7 mph82%30.24 "HgN/A
5:00 am48 °FPassing clouds.8 mph82%30.24 "HgN/A
4:30 am48 °FPassing clouds.8 mph82%30.24 "HgN/A
4:00 am48 °FPassing clouds.8 mph82%30.24 "HgN/A
3:30 am50 °FPassing clouds.8 mph76%30.24 "HgN/A
3:00 am50 °FPassing clouds.8 mph76%30.27 "HgN/A
2:30 am50 °FPassing clouds.7 mph76%30.27 "HgN/A
2:00 am50 °FPassing clouds.5 mph76%30.27 "HgN/A
1:30 am50 °FPassing clouds.3 mph82%30.27 "HgN/A
1:00 am52 °FPassing clouds.2 mph77%30.27 "HgN/A
12:30 am54 °FPassing clouds.1 mph72%30.27 "HgN/A
12:00 am55 °FPartly cloudy.1 mph72%30.27 "HgN/A
11:30 pm
Mon, Apr 12
55 °FPartly cloudy.5 mph77%30.27 "HgN/A
11:00 pm55 °FPassing clouds.9 mph72%30.27 "HgN/A
10:30 pm55 °FPassing clouds.10 mph72%30.27 "HgN/A
10:00 pm55 °FPassing clouds.9 mph67%30.27 "HgN/A
9:30 pm55 °FClear.8 mph63%30.24 "Hg10 mi
9:00 pm55 °FClear.13 mph63%30.24 "Hg10 mi
8:30 pm55 °FClear.10 mph67%30.24 "Hg10 mi
8:00 pm55 °FSunny.12 mph63%30.21 "Hg10 mi
7:30 pm57 °FPassing clouds.10 mph59%30.21 "HgN/A
7:00 pm57 °FSunny.12 mph55%30.21 "Hg10 mi
6:30 pm57 °FSunny.12 mph55%30.21 "Hg10 mi
6:00 pm57 °FSunny.14 mph55%30.21 "Hg10 mi
5:30 pm57 °FPassing clouds.14 mph59%30.21 "HgN/A
5:00 pm57 °FPassing clouds.14 mph55%30.21 "HgN/A
4:30 pm57 °FPassing clouds.15 mph51%30.21 "HgN/A
4:00 pm57 °FPassing clouds.16 mph55%30.21 "HgN/A
Weather by CustomWeather, © 2021

See weather overview